sensor_id;sensor_type;location;lat;lon;timestamp;P1;durP1;ratioP1;P2;durP2;ratioP2
27977;SDS011;15314;49.248;6.968;2023-09-19T00:00:17;8.82;;;8.00;;
27977;SDS011;15314;49.248;6.968;2023-09-19T00:01:19;8.43;;;7.85;;
27977;SDS011;15314;49.248;6.968;2023-09-19T00:02:20;8.38;;;7.88;;
27977;SDS011;15314;49.248;6.968;2023-09-19T00:03:21;9.00;;;8.30;;
27977;SDS011;15314;49.248;6.968;2023-09-19T00:04:22;9.30;;;8.50;;
27977;SDS011;15314;49.248;6.968;2023-09-19T00:05:29;8.90;;;8.07;;
27977;SDS011;15314;49.248;6.968;2023-09-19T00:06:30;8.50;;;7.72;;
27977;SDS011;15314;49.248;6.968;2023-09-19T00:07:31;11.93;;;8.95;;
27977;SDS011;15314;49.248;6.968;2023-09-19T00:08:32;8.95;;;8.10;;
27977;SDS011;15314;49.248;6.968;2023-09-19T00:09:33;8.85;;;8.10;;
27977;SDS011;15314;49.248;6.968;2023-09-19T00:10:37;9.02;;;8.25;;
27977;SDS011;15314;49.248;6.968;2023-09-19T00:11:39;8.50;;;7.70;;
27977;SDS011;15314;49.248;6.968;2023-09-19T00:12:43;8.30;;;7.63;;
27977;SDS011;15314;49.248;6.968;2023-09-19T00:13:43;8.25;;;7.65;;
27977;SDS011;15314;49.248;6.968;2023-09-19T00:14:49;8.32;;;7.35;;
27977;SDS011;15314;49.248;6.968;2023-09-19T00:15:51;8.80;;;7.97;;
27977;SDS011;15314;49.248;6.968;2023-09-19T00:16:52;7.78;;;7.07;;
27977;SDS011;15314;49.248;6.968;2023-09-19T00:17:54;7.63;;;7.10;;
27977;SDS011;15314;49.248;6.968;2023-09-19T00:18:56;8.10;;;7.32;;
27977;SDS011;15314;49.248;6.968;2023-09-19T00:19:58;8.38;;;7.65;;
27977;SDS011;15314;49.248;6.968;2023-09-19T00:20:58;7.80;;;7.20;;
27977;SDS011;15314;49.248;6.968;2023-09-19T00:21:59;7.85;;;7.35;;
27977;SDS011;15314;49.248;6.968;2023-09-19T00:23:00;8.63;;;7.82;;
27977;SDS011;15314;49.248;6.968;2023-09-19T00:24:08;8.65;;;7.78;;
27977;SDS011;15314;49.248;6.968;2023-09-19T00:25:10;7.90;;;7.30;;
27977;SDS011;15314;49.248;6.968;2023-09-19T00:26:11;7.65;;;7.25;;
27977;SDS011;15314;49.248;6.968;2023-09-19T00:27:12;8.07;;;7.35;;
27977;SDS011;15314;49.248;6.968;2023-09-19T00:28:13;7.95;;;7.18;;
27977;SDS011;15314;49.248;6.968;2023-09-19T00:29:15;8.57;;;7.93;;
27977;SDS011;15314;49.248;6.968;2023-09-19T00:30:16;7.88;;;7.32;;
27977;SDS011;15314;49.248;6.968;2023-09-19T00:31:20;8.32;;;7.63;;
27977;SDS011;15314;49.248;6.968;2023-09-19T00:32:25;8.43;;;7.57;;
27977;SDS011;15314;49.248;6.968;2023-09-19T00:33:31;8.63;;;7.82;;
27977;SDS011;15314;49.248;6.968;2023-09-19T00:34:32;8.35;;;7.57;;
27977;SDS011;15314;49.248;6.968;2023-09-19T00:35:34;8.57;;;7.97;;
27977;SDS011;15314;49.248;6.968;2023-09-19T00:36:36;8.55;;;7.82;;
27977;SDS011;15314;49.248;6.968;2023-09-19T00:37:39;8.15;;;7.45;;
27977;SDS011;15314;49.248;6.968;2023-09-19T00:38:40;8.45;;;7.78;;
27977;SDS011;15314;49.248;6.968;2023-09-19T00:39:40;8.55;;;7.72;;
27977;SDS011;15314;49.248;6.968;2023-09-19T00:40:43;7.93;;;7.25;;
27977;SDS011;15314;49.248;6.968;2023-09-19T00:41:44;7.97;;;7.38;;
27977;SDS011;15314;49.248;6.968;2023-09-19T00:42:46;7.93;;;7.35;;
27977;SDS011;15314;49.248;6.968;2023-09-19T00:43:47;8.68;;;7.93;;
27977;SDS011;15314;49.248;6.968;2023-09-19T00:44:48;8.40;;;7.70;;
27977;SDS011;15314;49.248;6.968;2023-09-19T00:45:51;8.48;;;7.78;;
27977;SDS011;15314;49.248;6.968;2023-09-19T00:46:53;7.88;;;7.30;;
27977;SDS011;15314;49.248;6.968;2023-09-19T00:47:54;9.27;;;8.38;;
27977;SDS011;15314;49.248;6.968;2023-09-19T00:48:54;8.82;;;8.23;;
27977;SDS011;15314;49.248;6.968;2023-09-19T00:49:57;8.57;;;7.82;;
27977;SDS011;15314;49.248;6.968;2023-09-19T00:50:59;7.90;;;7.30;;
27977;SDS011;15314;49.248;6.968;2023-09-19T00:52:04;8.98;;;8.05;;
27977;SDS011;15314;49.248;6.968;2023-09-19T00:53:05;7.85;;;7.15;;
27977;SDS011;15314;49.248;6.968;2023-09-19T00:54:08;7.82;;;7.28;;
27977;SDS011;15314;49.248;6.968;2023-09-19T00:55:09;8.65;;;7.80;;
27977;SDS011;15314;49.248;6.968;2023-09-19T00:56:14;10.77;;;7.40;;
27977;SDS011;15314;49.248;6.968;2023-09-19T00:57:18;8.98;;;8.27;;
27977;SDS011;15314;49.248;6.968;2023-09-19T00:58:19;11.70;;;8.20;;
27977;SDS011;15314;49.248;6.968;2023-09-19T00:59:20;7.82;;;7.13;;
27977;SDS011;15314;49.248;6.968;2023-09-19T01:00:22;9.27;;;7.28;;
27977;SDS011;15314;49.248;6.968;2023-09-19T01:01:24;8.60;;;7.97;;
27977;SDS011;15314;49.248;6.968;2023-09-19T01:02:25;9.48;;;8.48;;
27977;SDS011;15314;49.248;6.968;2023-09-19T01:03:30;8.32;;;7.53;;
27977;SDS011;15314;49.248;6.968;2023-09-19T01:04:31;8.32;;;7.78;;
27977;SDS011;15314;49.248;6.968;2023-09-19T01:05:33;8.52;;;7.82;;
27977;SDS011;15314;49.248;6.968;2023-09-19T01:06:34;11.52;;;8.75;;
27977;SDS011;15314;49.248;6.968;2023-09-19T01:07:36;10.43;;;8.48;;
27977;SDS011;15314;49.248;6.968;2023-09-19T01:08:48;8.50;;;7.80;;
27977;SDS011;15314;49.248;6.968;2023-09-19T01:09:49;8.50;;;7.85;;
27977;SDS011;15314;49.248;6.968;2023-09-19T01:10:55;9.20;;;8.30;;
27977;SDS011;15314;49.248;6.968;2023-09-19T01:12:10;8.13;;;7.40;;
27977;SDS011;15314;49.248;6.968;2023-09-19T01:13:22;8.63;;;7.90;;
27977;SDS011;15314;49.248;6.968;2023-09-19T01:14:34;8.27;;;7.45;;
27977;SDS011;15314;49.248;6.968;2023-09-19T01:15:46;8.40;;;7.85;;
27977;SDS011;15314;49.248;6.968;2023-09-19T01:19:37;8.88;;;8.02;;
27977;SDS011;15314;49.248;6.968;2023-09-19T01:21:09;9.18;;;8.35;;
27977;SDS011;15314;49.248;6.968;2023-09-19T01:22:35;11.43;;;8.27;;
27977;SDS011;15314;49.248;6.968;2023-09-19T01:26:27;11.02;;;8.50;;
27977;SDS011;15314;49.248;6.968;2023-09-19T01:29:13;8.45;;;7.75;;
27977;SDS011;15314;49.248;6.968;2023-09-19T01:30:26;8.95;;;8.25;;
27977;SDS011;15314;49.248;6.968;2023-09-19T01:31:28;15.10;;;8.15;;
27977;SDS011;15314;49.248;6.968;2023-09-19T01:32:33;8.80;;;8.02;;
27977;SDS011;15314;49.248;6.968;2023-09-19T01:34:57;9.05;;;8.27;;
27977;SDS011;15314;49.248;6.968;2023-09-19T01:36:04;8.95;;;8.10;;
27977;SDS011;15314;49.248;6.968;2023-09-19T01:37:05;9.95;;;8.95;;
27977;SDS011;15314;49.248;6.968;2023-09-19T01:38:06;9.45;;;8.63;;
27977;SDS011;15314;49.248;6.968;2023-09-19T01:39:12;9.07;;;8.20;;
27977;SDS011;15314;49.248;6.968;2023-09-19T01:40:14;9.57;;;8.60;;
27977;SDS011;15314;49.248;6.968;2023-09-19T01:41:30;11.55;;;8.75;;
27977;SDS011;15314;49.248;6.968;2023-09-19T01:42:42;9.13;;;8.35;;
27977;SDS011;15314;49.248;6.968;2023-09-19T01:43:43;8.43;;;7.60;;
27977;SDS011;15314;49.248;6.968;2023-09-19T01:45:48;9.05;;;8.30;;
27977;SDS011;15314;49.248;6.968;2023-09-19T01:47:04;9.63;;;8.75;;
27977;SDS011;15314;49.248;6.968;2023-09-19T01:48:25;8.95;;;8.35;;
27977;SDS011;15314;49.248;6.968;2023-09-19T01:50:58;10.65;;;9.48;;
27977;SDS011;15314;49.248;6.968;2023-09-19T01:52:02;12.82;;;8.90;;
27977;SDS011;15314;49.248;6.968;2023-09-19T01:53:22;10.95;;;9.85;;
27977;SDS011;15314;49.248;6.968;2023-09-19T01:54:31;9.40;;;8.75;;
27977;SDS011;15314;49.248;6.968;2023-09-19T01:55:39;9.75;;;8.95;;
27977;SDS011;15314;49.248;6.968;2023-09-19T01:56:50;9.60;;;8.65;;
27977;SDS011;15314;49.248;6.968;2023-09-19T01:59:17;9.30;;;8.60;;
27977;SDS011;15314;49.248;6.968;2023-09-19T02:00:24;9.38;;;8.27;;
27977;SDS011;15314;49.248;6.968;2023-09-19T02:01:25;9.20;;;8.50;;
27977;SDS011;15314;49.248;6.968;2023-09-19T02:02:28;9.77;;;8.98;;
27977;SDS011;15314;49.248;6.968;2023-09-19T02:03:29;10.77;;;9.68;;
27977;SDS011;15314;49.248;6.968;2023-09-19T02:04:32;9.60;;;8.80;;
27977;SDS011;15314;49.248;6.968;2023-09-19T02:05:34;9.23;;;8.52;;
27977;SDS011;15314;49.248;6.968;2023-09-19T02:06:35;9.60;;;8.70;;
27977;SDS011;15314;49.248;6.968;2023-09-19T02:07:40;10.00;;;9.18;;
27977;SDS011;15314;49.248;6.968;2023-09-19T02:08:41;10.20;;;9.18;;
27977;SDS011;15314;49.248;6.968;2023-09-19T02:09:41;10.95;;;9.10;;
27977;SDS011;15314;49.248;6.968;2023-09-19T02:10:42;9.77;;;8.80;;
27977;SDS011;15314;49.248;6.968;2023-09-19T02:11:46;9.93;;;9.05;;
27977;SDS011;15314;49.248;6.968;2023-09-19T02:12:46;9.73;;;8.82;;
27977;SDS011;15314;49.248;6.968;2023-09-19T02:13:47;10.07;;;9.25;;
27977;SDS011;15314;49.248;6.968;2023-09-19T02:14:48;9.50;;;8.70;;
27977;SDS011;15314;49.248;6.968;2023-09-19T02:15:48;10.15;;;9.23;;
27977;SDS011;15314;49.248;6.968;2023-09-19T02:16:49;9.80;;;8.73;;
27977;SDS011;15314;49.248;6.968;2023-09-19T02:17:50;10.20;;;9.40;;
27977;SDS011;15314;49.248;6.968;2023-09-19T02:18:51;9.63;;;8.77;;
27977;SDS011;15314;49.248;6.968;2023-09-19T02:19:55;10.27;;;9.38;;
27977;SDS011;15314;49.248;6.968;2023-09-19T02:20:56;10.07;;;9.20;;
27977;SDS011;15314;49.248;6.968;2023-09-19T02:21:58;11.15;;;9.50;;
27977;SDS011;15314;49.248;6.968;2023-09-19T02:22:59;10.55;;;9.50;;
27977;SDS011;15314;49.248;6.968;2023-09-19T02:24:00;9.38;;;8.73;;
27977;SDS011;15314;49.248;6.968;2023-09-19T02:25:02;11.55;;;9.88;;
27977;SDS011;15314;49.248;6.968;2023-09-19T02:26:07;14.93;;;9.73;;
27977;SDS011;15314;49.248;6.968;2023-09-19T02:27:08;10.82;;;9.70;;
27977;SDS011;15314;49.248;6.968;2023-09-19T02:28:08;10.45;;;9.55;;
27977;SDS011;15314;49.248;6.968;2023-09-19T02:29:09;10.68;;;9.57;;
27977;SDS011;15314;49.248;6.968;2023-09-19T02:30:13;10.18;;;9.30;;
27977;SDS011;15314;49.248;6.968;2023-09-19T02:31:15;12.00;;;9.20;;
27977;SDS011;15314;49.248;6.968;2023-09-19T02:32:16;10.15;;;9.35;;
27977;SDS011;15314;49.248;6.968;2023-09-19T02:33:18;10.18;;;9.10;;
27977;SDS011;15314;49.248;6.968;2023-09-19T02:34:19;9.77;;;8.70;;
27977;SDS011;15314;49.248;6.968;2023-09-19T02:35:20;12.98;;;10.18;;
27977;SDS011;15314;49.248;6.968;2023-09-19T02:36:21;11.52;;;9.50;;
27977;SDS011;15314;49.248;6.968;2023-09-19T02:37:22;10.88;;;9.20;;
27977;SDS011;15314;49.248;6.968;2023-09-19T02:38:23;11.63;;;9.45;;
27977;SDS011;15314;49.248;6.968;2023-09-19T02:39:25;15.20;;;9.50;;
27977;SDS011;15314;49.248;6.968;2023-09-19T02:40:26;11.02;;;8.93;;
27977;SDS011;15314;49.248;6.968;2023-09-19T02:41:27;9.60;;;8.70;;
27977;SDS011;15314;49.248;6.968;2023-09-19T02:42:29;12.35;;;9.00;;
27977;SDS011;15314;49.248;6.968;2023-09-19T02:43:30;9.90;;;8.85;;
27977;SDS011;15314;49.248;6.968;2023-09-19T02:44:31;10.45;;;9.23;;
27977;SDS011;15314;49.248;6.968;2023-09-19T02:45:32;12.25;;;9.20;;
27977;SDS011;15314;49.248;6.968;2023-09-19T02:46:33;10.77;;;9.65;;
27977;SDS011;15314;49.248;6.968;2023-09-19T02:47:36;9.95;;;8.95;;
27977;SDS011;15314;49.248;6.968;2023-09-19T02:48:36;9.07;;;8.38;;
27977;SDS011;15314;49.248;6.968;2023-09-19T02:49:37;11.30;;;9.50;;
27977;SDS011;15314;49.248;6.968;2023-09-19T02:50:38;9.35;;;8.57;;
27977;SDS011;15314;49.248;6.968;2023-09-19T02:51:40;10.52;;;9.27;;
27977;SDS011;15314;49.248;6.968;2023-09-19T02:52:41;10.23;;;9.23;;
27977;SDS011;15314;49.248;6.968;2023-09-19T02:53:43;9.60;;;8.70;;
27977;SDS011;15314;49.248;6.968;2023-09-19T02:54:44;9.65;;;8.75;;
27977;SDS011;15314;49.248;6.968;2023-09-19T02:55:45;9.73;;;8.82;;
27977;SDS011;15314;49.248;6.968;2023-09-19T02:56:47;15.98;;;9.70;;
27977;SDS011;15314;49.248;6.968;2023-09-19T02:57:48;11.18;;;8.95;;
27977;SDS011;15314;49.248;6.968;2023-09-19T02:58:50;11.40;;;8.98;;
27977;SDS011;15314;49.248;6.968;2023-09-19T02:59:51;14.60;;;9.07;;
27977;SDS011;15314;49.248;6.968;2023-09-19T03:00:52;10.35;;;9.25;;
27977;SDS011;15314;49.248;6.968;2023-09-19T03:01:52;10.02;;;9.15;;
27977;SDS011;15314;49.248;6.968;2023-09-19T03:02:54;10.05;;;9.02;;
27977;SDS011;15314;49.248;6.968;2023-09-19T03:03:56;11.48;;;9.55;;
27977;SDS011;15314;49.248;6.968;2023-09-19T03:04:56;10.63;;;9.40;;
27977;SDS011;15314;49.248;6.968;2023-09-19T03:06:00;10.43;;;9.27;;
27977;SDS011;15314;49.248;6.968;2023-09-19T03:07:04;10.55;;;9.30;;
27977;SDS011;15314;49.248;6.968;2023-09-19T03:08:06;10.32;;;9.02;;
27977;SDS011;15314;49.248;6.968;2023-09-19T03:09:06;10.40;;;9.27;;
27977;SDS011;15314;49.248;6.968;2023-09-19T03:10:13;10.75;;;9.52;;
27977;SDS011;15314;49.248;6.968;2023-09-19T03:11:16;9.90;;;9.02;;
27977;SDS011;15314;49.248;6.968;2023-09-19T03:12:18;12.57;;;9.93;;
27977;SDS011;15314;49.248;6.968;2023-09-19T03:13:19;12.65;;;9.98;;
27977;SDS011;15314;49.248;6.968;2023-09-19T03:14:20;9.75;;;8.88;;
27977;SDS011;15314;49.248;6.968;2023-09-19T03:15:21;10.70;;;9.60;;
27977;SDS011;15314;49.248;6.968;2023-09-19T03:16:21;10.05;;;9.27;;
27977;SDS011;15314;49.248;6.968;2023-09-19T03:17:22;13.05;;;9.70;;
27977;SDS011;15314;49.248;6.968;2023-09-19T03:18:23;13.15;;;9.80;;
27977;SDS011;15314;49.248;6.968;2023-09-19T03:19:26;10.35;;;9.32;;
27977;SDS011;15314;49.248;6.968;2023-09-19T03:20:27;11.02;;;9.65;;
27977;SDS011;15314;49.248;6.968;2023-09-19T03:21:28;9.05;;;8.40;;
27977;SDS011;15314;49.248;6.968;2023-09-19T03:22:29;10.80;;;9.63;;
27977;SDS011;15314;49.248;6.968;2023-09-19T03:23:30;10.85;;;9.82;;
27977;SDS011;15314;49.248;6.968;2023-09-19T03:24:31;10.60;;;9.25;;
27977;SDS011;15314;49.248;6.968;2023-09-19T03:25:36;9.85;;;8.98;;
27977;SDS011;15314;49.248;6.968;2023-09-19T03:26:36;9.98;;;9.07;;
27977;SDS011;15314;49.248;6.968;2023-09-19T03:27:38;11.88;;;9.23;;
27977;SDS011;15314;49.248;6.968;2023-09-19T03:28:39;11.00;;;9.90;;
27977;SDS011;15314;49.248;6.968;2023-09-19T03:29:41;11.18;;;9.05;;
27977;SDS011;15314;49.248;6.968;2023-09-19T03:30:42;9.20;;;8.60;;
27977;SDS011;15314;49.248;6.968;2023-09-19T03:31:43;9.93;;;9.02;;
27977;SDS011;15314;49.248;6.968;2023-09-19T03:32:45;11.27;;;9.75;;
27977;SDS011;15314;49.248;6.968;2023-09-19T03:33:47;12.65;;;9.38;;
27977;SDS011;15314;49.248;6.968;2023-09-19T03:34:47;9.77;;;8.93;;
27977;SDS011;15314;49.248;6.968;2023-09-19T03:35:52;11.98;;;9.68;;
27977;SDS011;15314;49.248;6.968;2023-09-19T03:36:53;10.90;;;9.80;;
27977;SDS011;15314;49.248;6.968;2023-09-19T03:37:55;11.60;;;10.35;;
27977;SDS011;15314;49.248;6.968;2023-09-19T03:38:56;10.10;;;9.18;;
27977;SDS011;15314;49.248;6.968;2023-09-19T03:39:57;10.27;;;9.38;;
27977;SDS011;15314;49.248;6.968;2023-09-19T03:40:57;10.98;;;9.85;;
27977;SDS011;15314;49.248;6.968;2023-09-19T03:41:59;10.13;;;9.23;;
27977;SDS011;15314;49.248;6.968;2023-09-19T03:43:02;10.98;;;9.25;;
27977;SDS011;15314;49.248;6.968;2023-09-19T03:44:03;9.93;;;9.10;;
27977;SDS011;15314;49.248;6.968;2023-09-19T03:45:04;10.88;;;9.80;;
27977;SDS011;15314;49.248;6.968;2023-09-19T03:46:06;10.60;;;8.60;;
27977;SDS011;15314;49.248;6.968;2023-09-19T03:47:07;13.63;;;9.30;;
27977;SDS011;15314;49.248;6.968;2023-09-19T03:48:11;10.98;;;9.98;;
27977;SDS011;15314;49.248;6.968;2023-09-19T03:49:11;11.50;;;9.63;;
27977;SDS011;15314;49.248;6.968;2023-09-19T03:50:12;11.45;;;9.70;;
27977;SDS011;15314;49.248;6.968;2023-09-19T03:51:17;10.38;;;9.40;;
27977;SDS011;15314;49.248;6.968;2023-09-19T03:52:17;10.50;;;8.85;;
27977;SDS011;15314;49.248;6.968;2023-09-19T03:53:18;10.07;;;9.18;;
27977;SDS011;15314;49.248;6.968;2023-09-19T03:54:18;9.82;;;8.90;;
27977;SDS011;15314;49.248;6.968;2023-09-19T03:55:19;12.63;;;9.10;;
27977;SDS011;15314;49.248;6.968;2023-09-19T03:56:20;9.82;;;8.60;;
27977;SDS011;15314;49.248;6.968;2023-09-19T03:57:20;16.17;;;10.90;;
27977;SDS011;15314;49.248;6.968;2023-09-19T03:58:21;11.27;;;9.80;;
27977;SDS011;15314;49.248;6.968;2023-09-19T03:59:21;10.85;;;8.90;;
27977;SDS011;15314;49.248;6.968;2023-09-19T04:00:22;10.82;;;9.77;;
27977;SDS011;15314;49.248;6.968;2023-09-19T04:01:26;10.25;;;8.48;;
27977;SDS011;15314;49.248;6.968;2023-09-19T04:02:27;10.63;;;9.82;;
27977;SDS011;15314;49.248;6.968;2023-09-19T04:03:33;10.73;;;9.57;;
27977;SDS011;15314;49.248;6.968;2023-09-19T04:04:46;10.38;;;9.35;;
27977;SDS011;15314;49.248;6.968;2023-09-19T04:05:47;14.25;;;10.15;;
27977;SDS011;15314;49.248;6.968;2023-09-19T04:06:48;12.77;;;9.57;;
27977;SDS011;15314;49.248;6.968;2023-09-19T04:07:48;14.02;;;10.27;;
27977;SDS011;15314;49.248;6.968;2023-09-19T04:08:50;12.05;;;9.38;;
27977;SDS011;15314;49.248;6.968;2023-09-19T04:09:50;12.45;;;9.65;;
27977;SDS011;15314;49.248;6.968;2023-09-19T04:10:53;10.85;;;9.68;;
27977;SDS011;15314;49.248;6.968;2023-09-19T04:11:54;11.27;;;9.75;;
27977;SDS011;15314;49.248;6.968;2023-09-19T04:12:54;13.23;;;9.23;;
27977;SDS011;15314;49.248;6.968;2023-09-19T04:13:56;11.13;;;9.80;;
27977;SDS011;15314;49.248;6.968;2023-09-19T04:14:57;10.32;;;9.38;;
27977;SDS011;15314;49.248;6.968;2023-09-19T04:15:57;16.58;;;9.75;;
27977;SDS011;15314;49.248;6.968;2023-09-19T04:16:58;13.95;;;9.18;;
27977;SDS011;15314;49.248;6.968;2023-09-19T04:17:59;12.35;;;9.45;;
27977;SDS011;15314;49.248;6.968;2023-09-19T04:19:00;10.27;;;9.38;;
27977;SDS011;15314;49.248;6.968;2023-09-19T04:20:00;10.82;;;9.73;;
27977;SDS011;15314;49.248;6.968;2023-09-19T04:21:01;11.30;;;9.15;;
27977;SDS011;15314;49.248;6.968;2023-09-19T04:22:04;10.05;;;9.20;;
27977;SDS011;15314;49.248;6.968;2023-09-19T04:23:04;9.75;;;8.80;;
27977;SDS011;15314;49.248;6.968;2023-09-19T04:24:05;10.38;;;9.32;;
27977;SDS011;15314;49.248;6.968;2023-09-19T04:25:06;10.13;;;9.23;;
27977;SDS011;15314;49.248;6.968;2023-09-19T04:26:07;12.75;;;9.52;;
27977;SDS011;15314;49.248;6.968;2023-09-19T04:27:08;15.20;;;9.40;;
27977;SDS011;15314;49.248;6.968;2023-09-19T04:28:09;10.43;;;9.50;;
27977;SDS011;15314;49.248;6.968;2023-09-19T04:29:11;10.45;;;8.65;;
27977;SDS011;15314;49.248;6.968;2023-09-19T04:30:14;9.32;;;8.25;;
27977;SDS011;15314;49.248;6.968;2023-09-19T04:31:14;9.40;;;8.50;;
27977;SDS011;15314;49.248;6.968;2023-09-19T04:32:16;11.93;;;8.68;;
27977;SDS011;15314;49.248;6.968;2023-09-19T04:33:17;12.65;;;9.60;;
27977;SDS011;15314;49.248;6.968;2023-09-19T04:34:18;11.38;;;10.25;;
27977;SDS011;15314;49.248;6.968;2023-09-19T04:35:18;9.52;;;8.60;;
27977;SDS011;15314;49.248;6.968;2023-09-19T04:36:19;10.93;;;8.88;;
27977;SDS011;15314;49.248;6.968;2023-09-19T04:37:22;10.57;;;8.98;;
27977;SDS011;15314;49.248;6.968;2023-09-19T04:38:22;10.13;;;9.23;;
27977;SDS011;15314;49.248;6.968;2023-09-19T04:39:23;12.52;;;9.40;;
27977;SDS011;15314;49.248;6.968;2023-09-19T04:40:25;13.35;;;9.80;;
27977;SDS011;15314;49.248;6.968;2023-09-19T04:41:26;11.40;;;8.43;;
27977;SDS011;15314;49.248;6.968;2023-09-19T04:42:27;8.73;;;7.82;;
27977;SDS011;15314;49.248;6.968;2023-09-19T04:43:30;8.95;;;8.15;;
27977;SDS011;15314;49.248;6.968;2023-09-19T04:44:30;9.68;;;7.95;;
27977;SDS011;15314;49.248;6.968;2023-09-19T04:45:31;12.10;;;8.38;;
27977;SDS011;15314;49.248;6.968;2023-09-19T04:46:31;10.10;;;7.82;;
27977;SDS011;15314;49.248;6.968;2023-09-19T04:47:32;10.85;;;8.45;;
27977;SDS011;15314;49.248;6.968;2023-09-19T04:48:33;10.98;;;8.48;;
27977;SDS011;15314;49.248;6.968;2023-09-19T04:49:34;11.18;;;8.00;;
27977;SDS011;15314;49.248;6.968;2023-09-19T04:50:35;10.85;;;8.65;;
27977;SDS011;15314;49.248;6.968;2023-09-19T04:51:37;10.55;;;8.95;;
27977;SDS011;15314;49.248;6.968;2023-09-19T04:52:38;13.82;;;8.52;;
27977;SDS011;15314;49.248;6.968;2023-09-19T04:53:42;11.00;;;9.18;;
27977;SDS011;15314;49.248;6.968;2023-09-19T04:54:44;10.20;;;9.05;;
27977;SDS011;15314;49.248;6.968;2023-09-19T04:55:45;9.20;;;8.32;;
27977;SDS011;15314;49.248;6.968;2023-09-19T04:56:46;8.98;;;8.07;;
27977;SDS011;15314;49.248;6.968;2023-09-19T04:57:47;15.95;;;8.45;;
27977;SDS011;15314;49.248;6.968;2023-09-19T04:58:48;9.95;;;9.05;;
27977;SDS011;15314;49.248;6.968;2023-09-19T04:59:49;9.73;;;8.45;;
27977;SDS011;15314;49.248;6.968;2023-09-19T05:00:50;9.90;;;9.00;;
27977;SDS011;15314;49.248;6.968;2023-09-19T05:01:51;11.55;;;9.15;;
27977;SDS011;15314;49.248;6.968;2023-09-19T05:02:52;11.50;;;9.38;;
27977;SDS011;15314;49.248;6.968;2023-09-19T05:03:58;11.68;;;9.18;;
27977;SDS011;15314;49.248;6.968;2023-09-19T05:04:59;10.45;;;8.45;;
27977;SDS011;15314;49.248;6.968;2023-09-19T05:05:59;8.95;;;7.95;;
27977;SDS011;15314;49.248;6.968;2023-09-19T05:07:00;12.75;;;8.57;;
27977;SDS011;15314;49.248;6.968;2023-09-19T05:08:03;10.68;;;8.65;;
27977;SDS011;15314;49.248;6.968;2023-09-19T05:09:05;16.55;;;9.15;;
27977;SDS011;15314;49.248;6.968;2023-09-19T05:10:06;12.25;;;8.98;;
27977;SDS011;15314;49.248;6.968;2023-09-19T05:11:07;9.43;;;8.60;;
27977;SDS011;15314;49.248;6.968;2023-09-19T05:12:09;9.20;;;8.45;;
27977;SDS011;15314;49.248;6.968;2023-09-19T05:13:10;9.93;;;8.02;;
27977;SDS011;15314;49.248;6.968;2023-09-19T05:14:12;11.93;;;9.18;;
27977;SDS011;15314;49.248;6.968;2023-09-19T05:15:12;11.35;;;9.20;;
27977;SDS011;15314;49.248;6.968;2023-09-19T05:16:17;18.95;;;9.15;;
27977;SDS011;15314;49.248;6.968;2023-09-19T05:17:18;11.98;;;8.90;;
27977;SDS011;15314;49.248;6.968;2023-09-19T05:18:19;11.50;;;8.73;;
27977;SDS011;15314;49.248;6.968;2023-09-19T05:19:20;10.30;;;8.43;;
27977;SDS011;15314;49.248;6.968;2023-09-19T05:20:20;8.80;;;7.93;;
27977;SDS011;15314;49.248;6.968;2023-09-19T05:21:27;10.45;;;8.90;;
27977;SDS011;15314;49.248;6.968;2023-09-19T05:22:29;9.98;;;8.88;;
27977;SDS011;15314;49.248;6.968;2023-09-19T05:23:29;11.20;;;8.98;;
27977;SDS011;15314;49.248;6.968;2023-09-19T05:24:31;9.77;;;8.77;;
27977;SDS011;15314;49.248;6.968;2023-09-19T05:25:31;15.30;;;8.98;;
27977;SDS011;15314;49.248;6.968;2023-09-19T05:26:33;10.32;;;9.05;;
27977;SDS011;15314;49.248;6.968;2023-09-19T05:27:33;12.30;;;8.27;;
27977;SDS011;15314;49.248;6.968;2023-09-19T05:28:43;10.63;;;8.50;;
27977;SDS011;15314;49.248;6.968;2023-09-19T05:29:43;10.13;;;8.85;;
27977;SDS011;15314;49.248;6.968;2023-09-19T05:30:44;13.15;;;9.10;;
27977;SDS011;15314;49.248;6.968;2023-09-19T05:31:46;12.27;;;8.75;;
27977;SDS011;15314;49.248;6.968;2023-09-19T05:32:46;11.13;;;8.48;;
27977;SDS011;15314;49.248;6.968;2023-09-19T05:33:47;11.68;;;9.77;;
27977;SDS011;15314;49.248;6.968;2023-09-19T05:34:47;12.75;;;8.68;;
27977;SDS011;15314;49.248;6.968;2023-09-19T05:35:48;10.07;;;9.07;;
27977;SDS011;15314;49.248;6.968;2023-09-19T05:36:49;13.40;;;9.15;;
27977;SDS011;15314;49.248;6.968;2023-09-19T05:37:50;9.48;;;8.68;;
27977;SDS011;15314;49.248;6.968;2023-09-19T05:38:51;9.82;;;9.00;;
27977;SDS011;15314;49.248;6.968;2023-09-19T05:39:53;10.27;;;9.00;;
27977;SDS011;15314;49.248;6.968;2023-09-19T05:40:54;9.90;;;8.95;;
27977;SDS011;15314;49.248;6.968;2023-09-19T05:41:54;9.50;;;8.48;;
27977;SDS011;15314;49.248;6.968;2023-09-19T05:42:57;9.43;;;8.73;;
27977;SDS011;15314;49.248;6.968;2023-09-19T05:43:57;14.00;;;9.30;;
27977;SDS011;15314;49.248;6.968;2023-09-19T05:44:59;9.93;;;8.93;;
27977;SDS011;15314;49.248;6.968;2023-09-19T05:46:00;10.00;;;8.98;;
27977;SDS011;15314;49.248;6.968;2023-09-19T05:47:01;11.43;;;9.50;;
27977;SDS011;15314;49.248;6.968;2023-09-19T05:48:10;12.32;;;9.52;;
27977;SDS011;15314;49.248;6.968;2023-09-19T05:49:13;10.20;;;9.30;;
27977;SDS011;15314;49.248;6.968;2023-09-19T05:50:14;10.98;;;9.98;;
27977;SDS011;15314;49.248;6.968;2023-09-19T05:51:16;11.98;;;9.52;;
27977;SDS011;15314;49.248;6.968;2023-09-19T05:52:18;11.27;;;9.52;;
27977;SDS011;15314;49.248;6.968;2023-09-19T05:53:19;11.27;;;10.15;;
27977;SDS011;15314;49.248;6.968;2023-09-19T05:54:19;10.10;;;9.30;;
27977;SDS011;15314;49.248;6.968;2023-09-19T05:55:20;10.00;;;9.15;;
27977;SDS011;15314;49.248;6.968;2023-09-19T05:56:24;12.02;;;9.90;;
27977;SDS011;15314;49.248;6.968;2023-09-19T05:57:25;8.95;;;8.35;;
27977;SDS011;15314;49.248;6.968;2023-09-19T05:58:26;12.68;;;10.52;;
27977;SDS011;15314;49.248;6.968;2023-09-19T05:59:27;12.90;;;10.10;;
27977;SDS011;15314;49.248;6.968;2023-09-19T06:00:27;10.80;;;9.80;;
27977;SDS011;15314;49.248;6.968;2023-09-19T06:01:29;12.82;;;9.52;;
27977;SDS011;15314;49.248;6.968;2023-09-19T06:02:31;10.23;;;9.32;;
27977;SDS011;15314;49.248;6.968;2023-09-19T06:03:33;10.93;;;9.65;;
27977;SDS011;15314;49.248;6.968;2023-09-19T06:04:35;13.98;;;9.32;;
27977;SDS011;15314;49.248;6.968;2023-09-19T06:05:36;12.88;;;9.52;;
27977;SDS011;15314;49.248;6.968;2023-09-19T06:06:36;14.02;;;10.13;;
27977;SDS011;15314;49.248;6.968;2023-09-19T06:07:39;10.07;;;9.02;;
27977;SDS011;15314;49.248;6.968;2023-09-19T06:08:40;10.70;;;9.77;;
27977;SDS011;15314;49.248;6.968;2023-09-19T06:09:41;10.43;;;9.02;;
27977;SDS011;15314;49.248;6.968;2023-09-19T06:10:41;10.27;;;9.27;;
27977;SDS011;15314;49.248;6.968;2023-09-19T06:11:42;10.05;;;8.70;;
27977;SDS011;15314;49.248;6.968;2023-09-19T06:12:43;10.57;;;8.98;;
27977;SDS011;15314;49.248;6.968;2023-09-19T06:13:46;12.27;;;8.65;;
27977;SDS011;15314;49.248;6.968;2023-09-19T06:14:51;10.10;;;9.23;;
27977;SDS011;15314;49.248;6.968;2023-09-19T06:15:52;9.90;;;8.88;;
27977;SDS011;15314;49.248;6.968;2023-09-19T06:16:52;12.40;;;9.45;;
27977;SDS011;15314;49.248;6.968;2023-09-19T06:17:54;12.32;;;9.25;;
27977;SDS011;15314;49.248;6.968;2023-09-19T06:18:56;12.07;;;9.25;;
27977;SDS011;15314;49.248;6.968;2023-09-19T06:19:57;10.80;;;9.75;;
27977;SDS011;15314;49.248;6.968;2023-09-19T06:20:57;16.13;;;9.35;;
27977;SDS011;15314;49.248;6.968;2023-09-19T06:21:58;13.75;;;11.68;;
27977;SDS011;15314;49.248;6.968;2023-09-19T06:22:59;13.90;;;10.40;;
27977;SDS011;15314;49.248;6.968;2023-09-19T06:24:02;12.35;;;11.20;;